createdAt,value
2022-12-13T00:01:34.131Z,9.57
2022-12-13T00:04:02.702Z,9.23
2022-12-13T00:06:31.145Z,8.63
2022-12-13T00:08:58.841Z,8.63
2022-12-13T00:11:30.330Z,8.60
2022-12-13T00:13:57.164Z,8.88
2022-12-13T00:16:25.604Z,8.77
2022-12-13T00:18:58.865Z,8.25
2022-12-13T00:21:28.512Z,8.98
2022-12-13T00:23:55.696Z,7.88
2022-12-13T00:26:28.114Z,8.55
2022-12-13T00:28:55.219Z,8.55
2022-12-13T00:34:10.683Z,9.02
2022-12-13T00:36:37.472Z,8.85
2022-12-13T00:39:04.277Z,8.88
2022-12-13T00:41:33.188Z,8.82
2022-12-13T00:44:00.599Z,8.60
2022-12-13T00:46:28.066Z,10.05
2022-12-13T00:48:57.322Z,8.90
2022-12-13T00:51:25.403Z,8.40
2022-12-13T00:53:52.159Z,7.97
2022-12-13T00:56:21.927Z,7.80
2022-12-13T00:58:52.297Z,9.05
2022-12-13T01:01:22.363Z,7.72
2022-12-13T01:03:49.493Z,8.38
2022-12-13T01:06:20.153Z,8.20
2022-12-13T01:08:47.773Z,8.52
2022-12-13T01:11:22.060Z,8.77
2022-12-13T01:13:48.851Z,8.98
2022-12-13T01:16:15.565Z,8.65
2022-12-13T01:18:42.700Z,9.40
2022-12-13T01:21:15.414Z,9.43
2022-12-13T01:23:43.184Z,10.38
2022-12-13T01:26:12.445Z,9.75
2022-12-13T01:28:39.305Z,9.48
2022-12-13T01:31:09.019Z,10.68
2022-12-13T01:33:36.081Z,9.77
2022-12-13T01:36:06.121Z,10.38
2022-12-13T01:38:38.096Z,10.18
2022-12-13T01:41:16.885Z,9.55
2022-12-13T01:43:44.560Z,9.60
2022-12-13T01:46:12.293Z,9.45
2022-12-13T01:48:49.382Z,9.18
2022-12-13T01:51:17.878Z,9.95
2022-12-13T01:53:45.759Z,9.75
2022-12-13T01:56:17.422Z,9.48
2022-12-13T01:58:44.259Z,8.57
2022-12-13T02:01:11.211Z,9.07
2022-12-13T02:03:40.836Z,9.32
2022-12-13T02:06:17.732Z,9.18
2022-12-13T02:08:45.478Z,8.25
2022-12-13T02:11:13.137Z,9.20
2022-12-13T02:13:40.003Z,8.35
2022-12-13T02:16:34.355Z,9.10
2022-12-13T02:19:29.453Z,9.20
2022-12-13T02:22:01.770Z,9.13
2022-12-13T02:25:17.010Z,9.65
2022-12-13T02:28:02.394Z,9.77
2022-12-13T02:30:29.539Z,10.20
2022-12-13T02:33:21.805Z,10.65
2022-12-13T02:35:53.026Z,10.07
2022-12-13T02:38:25.958Z,10.27
2022-12-13T02:41:16.560Z,10.52
2022-12-13T02:44:21.683Z,9.95
2022-12-13T02:47:00.034Z,10.70
2022-12-13T02:49:30.495Z,10.57
2022-12-13T02:51:58.142Z,10.48
2022-12-13T02:54:25.223Z,10.98
2022-12-13T02:56:59.798Z,11.43
2022-12-13T02:59:38.634Z,10.68
2022-12-13T03:02:46.389Z,10.77
2022-12-13T03:05:36.916Z,10.20
2022-12-13T03:08:09.827Z,10.18
2022-12-13T03:10:45.809Z,10.45
2022-12-13T03:13:35.210Z,10.45
2022-12-13T03:16:12.208Z,10.02
2022-12-13T03:18:40.145Z,9.95
2022-12-13T03:21:11.934Z,10.30
2022-12-13T03:23:39.104Z,10.93
2022-12-13T03:26:11.812Z,11.60
2022-12-13T03:28:39.560Z,11.02
2022-12-13T03:31:06.387Z,10.05
2022-12-13T03:33:33.172Z,10.65
2022-12-13T03:36:00.827Z,9.95
2022-12-13T03:38:30.794Z,10.35
2022-12-13T03:41:02.011Z,9.45
2022-12-13T03:43:29.366Z,9.80
2022-12-13T03:45:56.547Z,9.90
2022-12-13T03:48:24.123Z,10.80
2022-12-13T03:50:52.511Z,10.48
2022-12-13T03:53:22.961Z,9.65
2022-12-13T03:56:00.774Z,9.98
2022-12-13T03:58:36.882Z,9.15
2022-12-13T04:01:06.631Z,9.85
2022-12-13T04:03:33.479Z,10.52
2022-12-13T04:06:00.239Z,9.77
2022-12-13T04:08:27.053Z,9.77
2022-12-13T04:10:53.776Z,9.70
2022-12-13T04:13:35.655Z,9.85
2022-12-13T04:16:03.517Z,9.57
2022-12-13T04:18:30.665Z,8.63
2022-12-13T04:20:57.829Z,9.73
2022-12-13T04:23:24.768Z,8.82
2022-12-13T04:25:51.734Z,8.85
2022-12-13T04:28:22.821Z,9.10
2022-12-13T04:30:53.307Z,8.63
2022-12-13T04:33:24.355Z,9.05
2022-12-13T04:35:51.423Z,8.15
2022-12-13T04:38:18.806Z,9.70
2022-12-13T04:40:45.795Z,9.98
2022-12-13T04:43:12.422Z,9.63
2022-12-13T04:45:39.289Z,8.82
2022-12-13T04:48:09.284Z,10.63
2022-12-13T04:50:36.168Z,10.35
2022-12-13T04:53:03.000Z,9.68
2022-12-13T04:55:30.053Z,10.32
2022-12-13T04:57:56.854Z,9.30
2022-12-13T05:00:23.657Z,9.27
2022-12-13T05:02:50.723Z,9.73
2022-12-13T05:05:18.242Z,9.80
2022-12-13T05:07:45.392Z,10.48
2022-12-13T05:10:13.985Z,10.05
2022-12-13T05:12:59.895Z,9.85
2022-12-13T05:15:27.768Z,9.18
2022-12-13T05:17:54.436Z,10.00
2022-12-13T05:20:22.287Z,9.02
2022-12-13T05:22:49.217Z,9.50
2022-12-13T05:25:16.165Z,9.73
2022-12-13T05:27:42.978Z,9.65
2022-12-13T05:30:10.667Z,10.80
2022-12-13T05:32:44.271Z,9.52
2022-12-13T05:35:22.300Z,9.73
2022-12-13T05:37:54.816Z,9.23
2022-12-13T05:40:34.871Z,10.00
2022-12-13T05:43:02.997Z,9.60
2022-12-13T05:45:31.483Z,10.20
2022-12-13T05:47:58.843Z,9.93
2022-12-13T05:50:28.648Z,9.30
2022-12-13T05:52:55.410Z,8.73
2022-12-13T05:55:22.366Z,9.35
2022-12-13T05:57:50.762Z,10.90
2022-12-13T06:00:29.354Z,10.40
2022-12-13T06:03:01.221Z,10.38
2022-12-13T06:05:29.720Z,10.43
2022-12-13T06:07:58.000Z,9.50
2022-12-13T06:10:34.344Z,10.80
2022-12-13T06:13:22.051Z,10.23
2022-12-13T06:15:52.733Z,11.05
2022-12-13T06:18:30.477Z,10.25
2022-12-13T06:20:58.721Z,9.85
2022-12-13T06:23:25.523Z,12.07
2022-12-13T06:25:52.371Z,11.70
2022-12-13T06:28:19.594Z,12.05
2022-12-13T06:30:46.534Z,11.48
2022-12-13T06:33:13.479Z,11.93
2022-12-13T06:35:43.091Z,10.90
2022-12-13T06:38:11.976Z,11.43
2022-12-13T06:40:39.158Z,11.60
2022-12-13T06:43:05.938Z,11.85
2022-12-13T06:45:32.808Z,12.07
2022-12-13T06:48:02.179Z,10.77
2022-12-13T06:50:31.732Z,11.13
2022-12-13T06:52:58.496Z,13.40
2022-12-13T06:55:25.205Z,12.20
2022-12-13T06:57:52.139Z,11.65
2022-12-13T07:00:22.349Z,13.10
2022-12-13T07:02:54.601Z,12.07
2022-12-13T07:05:21.887Z,12.50
2022-12-13T07:07:51.274Z,11.98
2022-12-13T07:10:22.035Z,13.05
2022-12-13T07:12:49.549Z,12.48
2022-12-13T07:15:19.095Z,13.50
2022-12-13T07:17:50.535Z,12.82
2022-12-13T07:20:22.878Z,13.10
2022-12-13T07:22:58.327Z,12.23
2022-12-13T07:25:29.531Z,12.48
2022-12-13T07:28:04.237Z,13.05
2022-12-13T07:30:40.767Z,13.43
2022-12-13T07:33:08.559Z,14.13
2022-12-13T07:35:37.449Z,12.60
2022-12-13T07:38:05.573Z,13.25
2022-12-13T07:40:34.746Z,12.68
2022-12-13T07:43:01.429Z,12.88
2022-12-13T07:45:28.108Z,12.80
2022-12-13T07:47:54.994Z,12.50
2022-12-13T07:50:24.005Z,13.00
2022-12-13T07:52:52.678Z,12.73
2022-12-13T07:55:23.204Z,12.55
2022-12-13T07:58:09.457Z,12.65
2022-12-13T08:00:37.285Z,13.07
2022-12-13T08:03:04.619Z,13.35
2022-12-13T08:05:38.893Z,13.63
2022-12-13T08:08:08.054Z,13.43
2022-12-13T08:10:35.225Z,14.32
2022-12-13T08:13:03.032Z,12.95
2022-12-13T08:15:30.100Z,11.70
2022-12-13T08:17:57.303Z,12.23
2022-12-13T08:20:24.028Z,10.95
2022-12-13T08:23:02.034Z,12.13
2022-12-13T08:25:30.568Z,11.63
2022-12-13T08:28:01.606Z,11.30
2022-12-13T08:30:30.083Z,11.50
2022-12-13T08:32:56.850Z,12.93
2022-12-13T08:35:23.792Z,12.77
2022-12-13T08:37:50.693Z,12.60
2022-12-13T08:40:20.355Z,12.98
2022-12-13T08:42:47.089Z,12.82
2022-12-13T08:45:14.326Z,12.57
2022-12-13T08:47:44.328Z,12.82
2022-12-13T08:50:10.989Z,12.32
2022-12-13T08:52:40.406Z,13.88
2022-12-13T08:55:13.130Z,12.40
2022-12-13T08:57:40.943Z,12.80
2022-12-13T09:00:11.685Z,13.05
2022-12-13T09:02:38.959Z,13.20
2022-12-13T09:05:07.598Z,12.25
2022-12-13T09:07:36.394Z,13.10
2022-12-13T09:10:07.332Z,12.05
2022-12-13T09:12:51.913Z,12.10
2022-12-13T09:15:22.213Z,12.00
2022-12-13T09:17:52.359Z,13.60
2022-12-13T09:20:29.398Z,13.18
2022-12-13T09:23:02.457Z,11.95
2022-12-13T09:25:36.565Z,11.75
2022-12-13T09:28:08.851Z,12.13
2022-12-13T09:30:37.128Z,11.82
2022-12-13T09:33:17.538Z,12.20
2022-12-13T09:35:52.241Z,13.20
2022-12-13T09:38:18.964Z,11.93
2022-12-13T09:40:48.398Z,11.35
2022-12-13T09:43:31.275Z,10.73
2022-12-13T09:46:01.519Z,10.98
2022-12-13T09:48:34.907Z,10.88
2022-12-13T09:51:17.284Z,11.38
2022-12-13T09:53:51.315Z,10.55
2022-12-13T09:56:19.914Z,10.88
2022-12-13T09:58:49.486Z,10.38
2022-12-13T10:01:16.638Z,10.70
2022-12-13T10:03:52.764Z,10.88
2022-12-13T10:06:24.888Z,10.02
2022-12-13T10:08:59.245Z,11.63
2022-12-13T10:11:31.830Z,10.98
2022-12-13T10:14:05.579Z,11.13
2022-12-13T10:16:36.891Z,10.20
2022-12-13T10:19:28.354Z,10.70
2022-12-13T10:22:01.536Z,10.25
2022-12-13T10:24:36.805Z,10.30
2022-12-13T10:27:40.505Z,9.45
2022-12-13T10:30:11.848Z,9.68
2022-12-13T10:32:52.706Z,9.80
2022-12-13T10:35:26.141Z,9.80
2022-12-13T10:37:54.349Z,9.75
2022-12-13T10:40:34.758Z,10.82
2022-12-13T10:43:19.098Z,9.30
2022-12-13T10:46:18.290Z,10.35
2022-12-13T10:48:52.283Z,9.70
2022-12-13T10:51:20.836Z,10.02
2022-12-13T10:53:54.357Z,9.55
2022-12-13T10:56:23.832Z,9.98
2022-12-13T10:59:16.590Z,10.10
2022-12-13T11:01:44.257Z,11.02
2022-12-13T11:04:32.092Z,11.05
2022-12-13T11:07:26.363Z,9.52
2022-12-13T11:09:53.307Z,10.63
2022-12-13T11:12:25.292Z,10.13
2022-12-13T11:15:04.986Z,9.85
2022-12-13T11:17:34.144Z,11.65
2022-12-13T11:20:04.522Z,10.27
2022-12-13T11:22:37.832Z,10.88
2022-12-13T11:25:23.680Z,10.32
2022-12-13T11:28:37.671Z,9.93
2022-12-13T11:31:01.302Z,10.27
2022-12-13T11:33:34.683Z,10.98
2022-12-13T11:36:21.892Z,10.57
2022-12-13T11:39:03.812Z,9.63
2022-12-13T11:41:35.368Z,9.35
2022-12-13T11:44:23.841Z,9.65
2022-12-13T11:46:59.649Z,9.73
2022-12-13T11:49:41.442Z,10.15
2022-12-13T11:52:15.721Z,8.90
2022-12-13T11:55:04.290Z,9.18
2022-12-13T11:57:46.500Z,9.40
2022-12-13T12:00:34.357Z,8.95
2022-12-13T12:03:17.036Z,9.75
2022-12-13T12:06:08.275Z,9.32
2022-12-13T12:08:51.776Z,9.10
2022-12-13T12:11:42.743Z,9.63
2022-12-13T12:14:14.485Z,8.90
2022-12-13T12:16:46.515Z,9.13
2022-12-13T12:19:31.003Z,8.45
2022-12-13T12:22:16.240Z,8.45
2022-12-13T12:25:08.308Z,9.18
2022-12-13T12:27:46.162Z,9.05
2022-12-13T12:30:27.941Z,9.43
2022-12-13T12:33:08.668Z,9.60
2022-12-13T12:35:52.620Z,9.55
2022-12-13T12:38:49.772Z,9.23
2022-12-13T12:41:25.003Z,9.77
2022-12-13T12:44:17.089Z,9.93
2022-12-13T12:47:08.911Z,9.57
2022-12-13T12:49:58.705Z,9.90
2022-12-13T12:52:44.333Z,9.20
2022-12-13T12:55:19.789Z,8.77
2022-12-13T12:58:15.626Z,8.90
2022-12-13T13:00:59.989Z,8.55
2022-12-13T13:03:29.025Z,7.70
2022-12-13T13:06:18.912Z,9.02
2022-12-13T13:09:05.205Z,8.85
2022-12-13T13:11:43.195Z,8.02
2022-12-13T13:14:36.772Z,8.70
2022-12-13T13:17:25.188Z,8.90
2022-12-13T13:20:04.235Z,9.10
2022-12-13T13:22:44.149Z,9.25
2022-12-13T13:25:26.266Z,8.13
2022-12-13T13:28:06.368Z,7.72
2022-12-13T13:30:33.895Z,8.48
2022-12-13T13:33:00.794Z,8.90
2022-12-13T13:35:33.662Z,8.75
2022-12-13T13:38:24.993Z,8.73
2022-12-13T13:40:52.163Z,9.38
2022-12-13T13:43:32.644Z,8.35
2022-12-13T13:46:02.653Z,8.45
2022-12-13T13:48:37.048Z,9.40
2022-12-13T13:51:30.377Z,8.95
2022-12-13T13:54:24.727Z,8.82
2022-12-13T13:57:15.060Z,8.52
2022-12-13T14:00:15.288Z,9.05
2022-12-13T14:03:12.693Z,8.90
2022-12-13T14:06:30.190Z,8.50
2022-12-13T14:08:56.920Z,8.55
2022-12-13T14:11:42.180Z,8.27
2022-12-13T14:15:02.695Z,7.95
2022-12-13T14:18:00.144Z,8.13
2022-12-13T14:20:46.380Z,8.45
2022-12-13T14:23:21.831Z,7.90
2022-12-13T14:26:11.095Z,7.97
2022-12-13T14:28:59.083Z,7.90
2022-12-13T14:31:29.275Z,8.20
2022-12-13T14:33:56.842Z,8.73
2022-12-13T14:36:36.303Z,6.93
2022-12-13T14:39:24.508Z,8.35
2022-12-13T14:41:56.419Z,7.25
2022-12-13T14:44:29.323Z,7.32
2022-12-13T14:47:08.468Z,8.00
2022-12-13T14:49:38.666Z,7.95
2022-12-13T14:52:27.045Z,7.57
2022-12-13T14:55:00.130Z,7.30
2022-12-13T14:57:32.101Z,8.15
2022-12-13T15:00:00.846Z,7.68
2022-12-13T15:02:32.469Z,7.50
2022-12-13T15:05:08.560Z,8.10
2022-12-13T15:07:40.615Z,8.07
2022-12-13T15:10:25.302Z,7.45
2022-12-13T15:12:53.185Z,7.07
2022-12-13T15:15:35.820Z,8.07
2022-12-13T15:18:25.174Z,8.18
2022-12-13T15:20:54.602Z,8.35
2022-12-13T15:23:26.584Z,7.88
2022-12-13T15:26:02.209Z,7.68
2022-12-13T15:28:32.377Z,9.00
2022-12-13T15:31:04.096Z,8.60
2022-12-13T15:33:38.103Z,8.43
2022-12-13T15:36:18.292Z,8.02
2022-12-13T15:38:54.208Z,8.05
2022-12-13T15:41:24.221Z,8.18
2022-12-13T15:43:56.341Z,8.43
2022-12-13T15:46:25.337Z,8.45
2022-12-13T15:48:53.768Z,8.05
2022-12-13T15:51:28.525Z,8.50
2022-12-13T15:54:11.859Z,9.13
2022-12-13T15:56:43.959Z,9.05
2022-12-13T15:59:29.088Z,8.48
2022-12-13T16:01:58.397Z,9.38
2022-12-13T16:04:28.921Z,9.40
2022-12-13T16:06:55.951Z,9.27
2022-12-13T16:09:25.544Z,8.98
2022-12-13T16:11:54.658Z,10.40
2022-12-13T16:14:33.113Z,10.02
2022-12-13T16:17:08.222Z,9.05
2022-12-13T16:19:35.750Z,10.35
2022-12-13T16:22:02.506Z,9.02
2022-12-13T16:24:35.891Z,10.02
2022-12-13T16:27:08.704Z,10.57
2022-12-13T16:29:36.528Z,9.90
2022-12-13T16:32:08.372Z,10.20
2022-12-13T16:34:36.542Z,10.55
2022-12-13T16:37:08.480Z,10.65
2022-12-13T16:39:50.651Z,11.23
2022-12-13T16:42:19.820Z,10.82
2022-12-13T16:44:50.035Z,10.07
2022-12-13T16:47:27.076Z,11.30
2022-12-13T16:50:02.998Z,10.35
2022-12-13T16:52:29.714Z,10.68
2022-12-13T16:55:00.556Z,10.88
2022-12-13T16:57:27.332Z,10.48
2022-12-13T16:59:53.954Z,11.40
2022-12-13T17:02:20.635Z,10.68
2022-12-13T17:04:47.527Z,10.05
2022-12-13T17:07:14.224Z,9.80
2022-12-13T17:09:42.294Z,11.02
2022-12-13T17:12:09.147Z,10.20
2022-12-13T17:14:35.972Z,10.98
2022-12-13T17:17:02.888Z,10.50
2022-12-13T17:19:29.640Z,11.02
2022-12-13T17:21:56.382Z,10.95
2022-12-13T17:24:23.134Z,11.13
2022-12-13T17:26:54.727Z,10.55
2022-12-13T17:29:23.171Z,11.50
2022-12-13T17:31:49.944Z,10.32
2022-12-13T17:34:16.684Z,9.63
2022-12-13T17:36:43.951Z,10.18
2022-12-13T17:39:12.450Z,10.85
2022-12-13T17:41:39.168Z,10.65
2022-12-13T17:44:08.944Z,10.73
2022-12-13T17:46:36.151Z,10.73
2022-12-13T17:49:02.762Z,10.27
2022-12-13T17:51:30.098Z,11.98
2022-12-13T17:53:57.128Z,11.35
2022-12-13T17:56:23.741Z,11.85
2022-12-13T17:58:50.485Z,12.07
2022-12-13T18:01:20.436Z,11.70
2022-12-13T18:03:49.069Z,11.88
2022-12-13T18:06:16.032Z,10.95
2022-12-13T18:08:44.687Z,11.07
2022-12-13T18:13:59.094Z,11.98
2022-12-13T18:16:33.984Z,11.07
2022-12-13T18:19:04.116Z,11.38
2022-12-13T18:21:30.955Z,11.07
2022-12-13T18:23:59.386Z,11.90
2022-12-13T18:26:26.124Z,10.63
2022-12-13T18:28:53.008Z,11.18
2022-12-13T18:31:22.576Z,10.57
2022-12-13T18:33:50.687Z,10.80
2022-12-13T18:36:18.539Z,11.27
2022-12-13T18:38:45.606Z,11.77
2022-12-13T18:41:20.356Z,11.95
2022-12-13T18:43:47.704Z,11.32
2022-12-13T18:46:15.510Z,11.52
2022-12-13T18:48:42.552Z,11.35
2022-12-13T18:51:12.205Z,11.35
2022-12-13T18:53:43.129Z,10.98
2022-12-13T18:56:18.346Z,10.77
2022-12-13T18:58:47.172Z,11.65
2022-12-13T19:01:16.101Z,11.10
2022-12-13T19:03:46.466Z,11.85
2022-12-13T19:06:18.784Z,12.18
2022-12-13T19:08:49.642Z,11.02
2022-12-13T19:11:16.604Z,11.80
2022-12-13T19:13:47.059Z,11.20
2022-12-13T19:16:16.426Z,11.63
2022-12-13T19:18:43.461Z,12.48
2022-12-13T19:21:13.745Z,12.02
2022-12-13T19:23:41.026Z,10.68
2022-12-13T19:26:13.430Z,11.30
2022-12-13T19:28:46.759Z,11.27
2022-12-13T19:31:14.621Z,11.65
2022-12-13T19:33:42.730Z,10.43
2022-12-13T19:36:11.106Z,10.75
2022-12-13T19:38:38.558Z,11.35
2022-12-13T19:41:16.018Z,11.63
2022-12-13T19:43:50.760Z,11.02
2022-12-13T19:46:20.081Z,11.98
2022-12-13T19:48:47.784Z,11.23
2022-12-13T19:51:14.719Z,10.70
2022-12-13T19:53:42.043Z,11.07
2022-12-13T19:56:11.139Z,11.38
2022-12-13T19:58:38.763Z,11.23
2022-12-13T20:01:09.171Z,11.45
2022-12-13T20:03:38.950Z,11.18
2022-12-13T20:06:07.218Z,12.43
2022-12-13T20:08:34.391Z,11.45
2022-12-13T20:11:16.337Z,11.70
2022-12-13T20:13:43.122Z,11.10
2022-12-13T20:16:15.671Z,11.57
2022-12-13T20:18:42.607Z,11.52
2022-12-13T20:21:12.938Z,11.45
2022-12-13T20:23:48.649Z,12.10
2022-12-13T20:26:25.630Z,12.43
2022-12-13T20:28:52.760Z,11.75
2022-12-13T20:31:21.595Z,12.43
2022-12-13T20:33:48.682Z,11.90
2022-12-13T20:36:26.144Z,12.35
2022-12-13T20:39:00.925Z,11.57
2022-12-13T20:41:30.267Z,12.27
2022-12-13T20:43:58.949Z,13.05
2022-12-13T20:46:26.687Z,12.05
2022-12-13T20:48:54.558Z,11.30
2022-12-13T20:51:23.722Z,11.40
2022-12-13T20:53:51.320Z,11.55
2022-12-13T20:56:21.089Z,11.65
2022-12-13T20:58:48.280Z,11.40
2022-12-13T21:01:20.489Z,11.40
2022-12-13T21:03:47.764Z,11.25
2022-12-13T21:06:14.522Z,11.23
2022-12-13T21:08:54.900Z,11.90
2022-12-13T21:11:31.774Z,11.40
2022-12-13T21:14:11.219Z,11.52
2022-12-13T21:16:49.708Z,11.32
2022-12-13T21:19:19.785Z,11.73
2022-12-13T21:21:47.697Z,11.40
2022-12-13T21:24:16.375Z,11.15
2022-12-13T21:26:43.660Z,11.25
2022-12-13T21:29:12.853Z,11.00
2022-12-13T21:31:41.503Z,10.88
2022-12-13T21:34:08.406Z,10.48
2022-12-13T21:36:37.762Z,10.85
2022-12-13T21:39:10.321Z,11.43
2022-12-13T21:41:40.468Z,10.88
2022-12-13T21:44:07.741Z,10.82
2022-12-13T21:47:10.710Z,12.05
2022-12-13T21:49:21.293Z,10.77
2022-12-13T21:51:48.856Z,10.23
2022-12-13T21:54:15.898Z,10.38
2022-12-13T21:57:04.239Z,9.57
2022-12-13T21:59:34.145Z,11.15
2022-12-13T22:02:13.528Z,11.73
2022-12-13T22:04:48.601Z,9.43
2022-12-13T22:07:18.352Z,9.48
2022-12-13T22:09:46.061Z,9.50
2022-12-13T22:12:41.522Z,10.10
2022-12-13T22:15:11.087Z,9.75
2022-12-13T22:17:41.998Z,9.93
2022-12-13T22:20:11.891Z,9.25
2022-12-13T22:22:40.091Z,9.25
2022-12-13T22:25:07.778Z,9.32
2022-12-13T22:27:34.724Z,10.00
2022-12-13T22:30:01.417Z,10.13
2022-12-13T22:32:31.831Z,10.10
2022-12-13T22:34:59.114Z,9.38
2022-12-13T22:37:26.440Z,9.80
2022-12-13T22:39:53.079Z,9.90
2022-12-13T22:42:20.317Z,9.73
2022-12-13T22:44:46.903Z,9.75
2022-12-13T22:47:13.604Z,9.52
2022-12-13T22:49:40.314Z,10.13
2022-12-13T22:52:07.251Z,9.50
2022-12-13T22:54:33.920Z,9.90
2022-12-13T22:57:00.492Z,9.85
2022-12-13T22:59:27.185Z,9.75
2022-12-13T23:02:02.194Z,9.90
2022-12-13T23:04:30.067Z,9.63
2022-12-13T23:06:56.723Z,9.98
2022-12-13T23:09:23.470Z,10.35
2022-12-13T23:12:08.679Z,10.85
2022-12-13T23:14:35.568Z,10.25
2022-12-13T23:17:03.007Z,9.85
2022-12-13T23:19:50.010Z,9.70
2022-12-13T23:22:16.809Z,9.38
2022-12-13T23:24:43.559Z,9.75
2022-12-13T23:27:10.209Z,9.70
2022-12-13T23:29:37.056Z,10.30
2022-12-13T23:32:04.248Z,10.00
2022-12-13T23:34:31.042Z,9.18
2022-12-13T23:36:57.754Z,7.80
2022-12-13T23:39:24.552Z,9.55
2022-12-13T23:41:51.244Z,8.90
2022-12-13T23:44:17.957Z,8.18
2022-12-13T23:46:48.640Z,8.98
2022-12-13T23:49:16.462Z,8.63
2022-12-13T23:51:43.368Z,8.63
2022-12-13T23:54:14.706Z,9.07
2022-12-13T23:56:41.750Z,9.25
2022-12-13T23:59:11.836Z,9.13
